Historyczne dane pomiarowe

Dodano dane terminowe – wersja testowa.

Dane z okresu 1951-2019

Wersja bazy: 1.34 [2019-03-16, lista zmian], aktualizacja planowana na 2019-04-15

Dane meteo z obszaru Polski uzyskane na podstawie danych udostępnionych przez Instytut Meteorologii i Gospodarki Wodnej – Państwowy Instytut Badawczy.

 

Wybierz Datę:    

       

TemperaturaWilgotnośćWiatrCiśnienieOpadyŚniegCzas trwania zjawisk
 Stacja t tx tn tng RH VA  wxwx mslp ppp RRR   cm mm wxwxwxwxwxwxwx
1994-08-14 14.2 17.4 11.3 10.6 75.5- 4.0 5.3---- 0.3------------
1994-08-13 18.1 23.2 15.0 14.2 78.8- 6.7 4.7---- 5.8------------
1994-08-12 20.0 26.1 15.7 14.7 63.0- 6.7 3.3---- 0.0------------
1994-08-11 19.8 24.4 12.7 11.6 68.8- 4.0 2.0---- 0.3------------
1994-08-10 20.0 25.8 14.6 14.4 74.5- 6.0 1.0---- 0.0------------
1994-08-09 17.5 20.6 14.8 13.8 94.5- 8.0 1.0---- 13.4------------
1994-08-08 19.8 25.9 17.3 16.6 79.3- 6.7 1.7---- 0.0------------
1994-08-07 24.9 29.4 20.1 18.6 62.0- 4.0 2.7---- 0.2------------
1994-08-06 26.3 33.7 17.1 15.0 46.0- 1.3 1.7---- 0.0------------
1994-08-05 25.9 32.2 18.8 17.4 60.5- 3.3 1.0---- 0.0------------
1994-08-04 24.1 30.2 17.4 16.7 71.3- 2.7 1.3---- 0.0------------
1994-08-03 24.0 29.3 19.4 17.9 68.8- 6.0 2.3---- 10.5------------
1994-08-02 28.4 34.1 23.8 22.4 49.3- 3.0 0.7---- 0.0------------
1994-08-01 28.2 36.2 17.6 16.4 53.0- 3.7 1.3---- 0.1------------
1994-07-31 27.9 35.4 18.0 16.3 55.3- 1.7 0.0---- 0.0------------
1994-07-30 28.4 36.4 16.5 15.4 48.5- 1.0 1.3---- 0.0------------
1994-07-29 27.6 35.3 16.7 13.9 47.3- 0.3 1.3---- 0.0------------
1994-07-28 26.9 34.3 17.1 14.1 50.5- 0.3 1.0---- 0.0------------
1994-07-27 25.9 33.9 16.4 13.3 50.3- 0.7 2.3---- 0.0------------
1994-07-26 25.8 33.4 15.1 12.8 50.3- 0.0 1.7---- 0.0------------
1994-07-25 24.5 32.3 14.2 12.0 55.8- 1.0 1.3---- 0.0------------
1994-07-24 23.7 30.5 13.4 11.1 51.3- 1.7 1.7---- 0.0------------
1994-07-23 22.5 28.8 14.2 12.1 60.0- 2.3 1.3---- 0.0------------
1994-07-22 21.1 27.3 13.0 10.5 60.0- 1.0 3.0---- 0.0------------
1994-07-21 21.4 28.7 10.5 8.5 52.5- 0.3 2.0---- 0.0------------
1994-07-20 19.1 25.1 12.2 9.6 59.5- 1.0 2.0---- 0.0------------
1994-07-19 18.7 23.6 12.4 10.5 59.5- 2.0 3.7---- 0.0------------
1994-07-18 20.2 25.6 14.5 14.1 70.8- 5.3 3.0---- 0.0------------
1994-07-17 22.8 27.9 17.2 15.5 63.0- 5.7 2.3---- 14.5------------
1994-07-16 23.9 31.6 14.4 12.3 56.0- 2.0 1.3---- 0.0------------
1994-07-15 25.0 30.6 16.2 14.4 51.3- 1.0 3.3---- 0.0------------
1994-07-14 25.9 31.0 19.0 17.6 52.5- 3.3 3.3---- 0.0------------
1994-07-13 25.2 31.1 16.2 14.1 58.0- 1.7 2.3---- 0.0------------
1994-07-12 24.2 30.0 14.3 12.8 64.3- 2.0 3.0---- 0.0------------
1994-07-11 22.1 28.2 15.4 12.9 65.5- 2.0 2.7---- 0.0------------
1994-07-10 19.6 26.6 13.3 12.2 69.3- 3.3 2.7---- 0.0------------
1994-07-09 14.0 16.2 12.0 11.3 93.8- 8.0 2.7---- 9.8------------
1994-07-08 15.7 25.4 12.7 10.5 84.0- 7.3 2.7---- 26.1------------
1994-07-07 21.1 27.7 12.3 9.9 53.3- 2.3 1.7---- 0.3------------
1994-07-06 20.8 26.6 11.7 8.7 52.5- 5.0 0.7---- 0.0------------
1994-07-05 20.6 25.9 13.2 11.1 51.8- 2.3 3.3---- 0.0------------
1994-07-04 20.7 27.2 12.2 8.8 54.5- 0.7 2.0---- 0.0------------
1994-07-03 19.2 26.1 10.7 7.7 49.8- 1.3 1.3---- 0.0------------
1994-07-02 18.5 24.8 9.7 7.0 56.0- 0.0 2.7---- 0.0------------
1994-07-01 18.7 24.6 11.1 8.4 57.0- 3.3 2.3---- 0.0------------
1994-06-30 21.9 27.9 18.7 18.3 73.3- 6.3 3.0---- 0.0------------
1994-06-29 25.0 30.9 15.4 13.1 60.3- 0.0 1.3---- 0.2------------
1994-06-28 22.9 29.1 15.4 12.4 58.0- 0.0 1.7---- 0.0------------
1994-06-27 24.5 30.8 17.6 14.4 58.3- 0.3 2.3---- 0.0------------
1994-06-26 22.5 30.6 10.0 7.3 55.0- 1.0 2.0---- 0.0------------
1994-06-25 16.7 23.3 6.8 3.7 58.3- 0.3 2.0---- 0.0------------
1994-06-24 14.9 19.5 10.4 8.1 53.8- 2.7 5.0---- 0.0------------
1994-06-23 16.5 23.1 13.4 12.4 49.8- 2.7 7.7---- 0.0------------
1994-06-22 18.6 24.7 10.4 7.2 61.8- 6.0 4.0---- 0.0------------
1994-06-21 15.5 21.7 7.7 4.4 63.0- 1.3 2.0---- 0.0------------
1994-06-20 16.3 18.8 13.7 11.4 61.0- 5.0 4.0---- 0.0------------
1994-06-19 14.9 18.5 11.9 10.8 79.8- 7.7 3.0---- 1.5------------
1994-06-18 12.8 18.3 4.8 1.7 63.5- 5.7 3.3---- 1.9------------
1994-06-17 12.1 15.5 8.3 6.9 67.8- 4.3 4.3---- 1.3------------
1994-06-16 11.4 15.4 8.3 5.8 71.8- 7.3 5.0---- 1.8------------
280.7 ms

 

Źródłem pochodzenia danych jest Instytut Meteorologii i Gospodarki Wodnej – Państwowy Instytut Badawczy. Dane Instytutu Meteorologii i Gospodarki Wodnej – Państwowego Instytutu Badawczego zostały przetworzone.

Dane źródłowe można odnaleźć na stronie https://dane.imgw.pl